createdAt,value
2023-03-20T00:01:35.453Z,94.10
2023-03-20T00:04:10.414Z,94.24
2023-03-20T00:06:42.459Z,94.35
2023-03-20T00:09:14.981Z,93.64
2023-03-20T00:11:59.006Z,93.27
2023-03-20T00:14:31.551Z,93.61
2023-03-20T00:17:11.519Z,93.38
2023-03-20T00:19:47.005Z,93.63
2023-03-20T00:22:18.994Z,93.39
2023-03-20T00:24:51.117Z,93.35
2023-03-20T00:27:29.133Z,93.11
2023-03-20T00:30:01.165Z,92.81
2023-03-20T00:32:33.195Z,93.64
2023-03-20T00:35:24.358Z,93.57
2023-03-20T00:38:00.439Z,93.06
2023-03-20T00:40:35.880Z,93.24
2023-03-20T00:43:10.765Z,92.71
2023-03-20T00:45:45.595Z,92.32
2023-03-20T00:48:40.134Z,92.68
2023-03-20T00:51:12.204Z,92.74
2023-03-20T00:53:44.383Z,93.12
2023-03-20T00:56:41.074Z,93.51
2023-03-20T01:00:05.292Z,93.71
2023-03-20T01:02:37.659Z,93.33
2023-03-20T01:05:10.971Z,93.68
2023-03-20T01:07:43.098Z,93.88
2023-03-20T01:10:15.570Z,94.39
2023-03-20T01:12:48.125Z,93.83
2023-03-20T01:15:24.020Z,94.35
2023-03-20T01:17:56.140Z,94.29
2023-03-20T01:20:30.989Z,93.28
2023-03-20T01:23:03.030Z,92.30
2023-03-20T01:25:35.517Z,93.25
2023-03-20T01:28:34.226Z,94.34
2023-03-20T01:31:06.573Z,94.32
2023-03-20T01:33:40.288Z,93.52
2023-03-20T01:36:15.128Z,92.75
2023-03-20T01:38:54.417Z,92.46
2023-03-20T01:41:27.737Z,92.78
2023-03-20T01:44:16.343Z,93.48
2023-03-20T01:46:48.946Z,92.39
2023-03-20T01:49:23.519Z,93.46
2023-03-20T01:51:57.209Z,93.45
2023-03-20T01:54:34.884Z,92.40
2023-03-20T01:57:22.971Z,92.07
2023-03-20T02:00:03.667Z,91.34
2023-03-20T02:02:36.330Z,91.54
2023-03-20T02:05:11.896Z,91.43
2023-03-20T02:07:51.548Z,92.04
2023-03-20T02:10:23.910Z,92.66
2023-03-20T02:12:59.174Z,92.75
2023-03-20T02:15:31.903Z,93.35
2023-03-20T02:18:04.123Z,94.06
2023-03-20T02:20:54.223Z,94.04
2023-03-20T02:24:03.676Z,94.68
2023-03-20T02:27:15.523Z,93.86
2023-03-20T02:30:08.701Z,94.55
2023-03-20T02:33:28.171Z,95.06
2023-03-20T02:36:26.599Z,94.91
2023-03-20T02:39:16.365Z,94.93
2023-03-20T02:42:07.429Z,94.36
2023-03-20T02:45:17.460Z,94.13
2023-03-20T02:48:19.579Z,94.52
2023-03-20T02:52:10.169Z,93.77
2023-03-20T02:55:07.226Z,93.25
2023-03-20T02:58:24.509Z,91.20
2023-03-20T03:01:09.647Z,91.05
2023-03-20T03:03:51.974Z,91.23
2023-03-20T03:06:37.198Z,90.81
2023-03-20T03:09:18.770Z,90.76
2023-03-20T03:12:07.741Z,89.89
2023-03-20T03:14:47.289Z,89.01
2023-03-20T03:17:24.232Z,89.64
2023-03-20T03:20:06.132Z,89.46
2023-03-20T03:22:44.018Z,89.30
2023-03-20T03:25:16.180Z,88.98
2023-03-20T03:28:04.321Z,88.63
2023-03-20T03:31:11.275Z,88.57
2023-03-20T03:33:47.600Z,88.27
2023-03-20T03:36:41.565Z,88.80
2023-03-20T03:39:38.096Z,88.92
2023-03-20T03:42:41.491Z,89.03
2023-03-20T03:45:31.752Z,89.79
2023-03-20T03:48:12.863Z,89.88
2023-03-20T03:50:53.462Z,90.00
2023-03-20T03:53:40.350Z,90.12
2023-03-20T03:56:16.559Z,90.75
2023-03-20T03:58:53.808Z,90.87
2023-03-20T04:01:31.666Z,91.21
2023-03-20T04:04:08.060Z,90.89
2023-03-20T04:06:43.137Z,91.07
2023-03-20T04:09:20.938Z,90.92
2023-03-20T04:11:54.097Z,90.92
2023-03-20T04:14:26.434Z,91.82
2023-03-20T04:16:58.629Z,92.18
2023-03-20T04:19:30.756Z,92.32
2023-03-20T04:22:02.923Z,92.32
2023-03-20T04:24:58.560Z,93.21
2023-03-20T04:27:30.889Z,93.37
2023-03-20T04:30:05.763Z,92.90
2023-03-20T04:32:38.196Z,93.39
2023-03-20T04:35:10.564Z,93.77
2023-03-20T04:37:42.570Z,94.75
2023-03-20T04:40:15.085Z,94.51
2023-03-20T04:42:47.170Z,94.33
2023-03-20T04:45:19.349Z,95.55
2023-03-20T04:47:52.560Z,95.82
2023-03-20T04:50:24.675Z,95.71
2023-03-20T04:52:57.004Z,95.13
2023-03-20T04:55:29.187Z,95.41
2023-03-20T04:58:01.229Z,95.21
2023-03-20T05:00:33.952Z,95.12
2023-03-20T05:03:07.373Z,94.54
2023-03-20T05:05:39.571Z,94.36
2023-03-20T05:08:11.708Z,94.42
2023-03-20T05:10:45.606Z,94.52
2023-03-20T05:13:21.218Z,94.33
2023-03-20T05:16:13.947Z,94.02
2023-03-20T05:18:46.404Z,94.15
2023-03-20T05:21:18.659Z,95.57
2023-03-20T05:23:50.923Z,95.17
2023-03-20T05:26:22.986Z,94.86
2023-03-20T05:28:55.042Z,95.17
2023-03-20T05:31:27.102Z,95.57
2023-03-20T05:34:01.822Z,94.69
2023-03-20T05:36:33.904Z,94.84
2023-03-20T05:39:34.992Z,95.53
2023-03-20T05:42:10.023Z,96.05
2023-03-20T05:44:42.676Z,96.40
2023-03-20T05:47:14.990Z,96.90
2023-03-20T05:49:47.041Z,97.02
2023-03-20T05:52:19.151Z,96.82
2023-03-20T05:54:51.502Z,96.95
2023-03-20T05:57:23.604Z,97.17
2023-03-20T05:59:58.690Z,97.25
2023-03-20T06:02:30.752Z,97.45
2023-03-20T06:05:04.462Z,96.97
2023-03-20T06:07:36.519Z,96.05
2023-03-20T06:10:10.117Z,96.33
2023-03-20T06:12:42.164Z,96.09
2023-03-20T06:15:15.124Z,95.30
2023-03-20T06:17:47.248Z,94.24
2023-03-20T06:20:19.402Z,94.43
2023-03-20T06:22:51.973Z,94.15
2023-03-20T06:25:24.004Z,92.95
2023-03-20T06:27:56.189Z,92.98
2023-03-20T06:30:29.512Z,93.71
2023-03-20T06:33:01.694Z,92.94
2023-03-20T06:35:34.530Z,92.20
2023-03-20T06:38:17.445Z,92.25
2023-03-20T06:40:52.155Z,91.94
2023-03-20T06:43:24.187Z,88.78
2023-03-20T06:45:56.222Z,87.66
2023-03-20T06:48:28.516Z,88.04
2023-03-20T06:51:00.660Z,88.38
2023-03-20T06:53:35.830Z,87.59
2023-03-20T06:56:10.272Z,86.27
2023-03-20T06:58:52.405Z,86.53
2023-03-20T07:01:28.326Z,85.62
2023-03-20T07:04:01.330Z,85.49
2023-03-20T07:06:34.129Z,84.77
2023-03-20T07:09:07.872Z,84.10
2023-03-20T07:14:26.578Z,84.63
2023-03-20T07:17:01.543Z,85.27
2023-03-20T07:19:34.562Z,85.21
2023-03-20T07:22:18.522Z,85.05
2023-03-20T07:24:50.821Z,85.21
2023-03-20T07:27:23.375Z,84.24
2023-03-20T07:29:56.995Z,83.88
2023-03-20T07:32:29.002Z,83.15
2023-03-20T07:35:01.801Z,83.08
2023-03-20T07:37:33.804Z,83.07
2023-03-20T07:40:07.069Z,82.56
2023-03-20T07:42:44.976Z,81.55
2023-03-20T07:45:19.699Z,81.05
2023-03-20T07:47:51.873Z,81.55
2023-03-20T07:50:25.536Z,81.51
2023-03-20T07:52:57.708Z,81.81
2023-03-20T07:55:29.757Z,81.05
2023-03-20T07:58:01.842Z,80.05
2023-03-20T08:00:50.961Z,81.11
2023-03-20T08:03:23.132Z,81.03
2023-03-20T08:05:55.635Z,81.54
2023-03-20T08:08:27.924Z,81.08
2023-03-20T08:11:00.183Z,80.97
2023-03-20T08:13:32.896Z,79.89
2023-03-20T08:16:06.158Z,78.57
2023-03-20T08:18:42.803Z,79.55
2023-03-20T08:21:14.874Z,79.11
2023-03-20T08:23:46.989Z,78.54
2023-03-20T08:26:20.579Z,76.18
2023-03-20T08:28:52.817Z,76.28
2023-03-20T08:31:26.019Z,74.75
2023-03-20T08:33:58.224Z,75.50
2023-03-20T08:36:30.416Z,76.13
2023-03-20T08:39:02.426Z,75.71
2023-03-20T08:41:39.011Z,74.87
2023-03-20T08:44:11.894Z,74.42
2023-03-20T08:46:44.966Z,75.90
2023-03-20T08:49:17.291Z,76.21
2023-03-20T08:51:49.546Z,75.67
2023-03-20T08:54:21.645Z,75.54
2023-03-20T08:56:54.977Z,73.95
2023-03-20T08:59:27.074Z,72.74
2023-03-20T09:01:59.292Z,71.50
2023-03-20T09:04:31.466Z,71.01
2023-03-20T09:07:03.686Z,70.77
2023-03-20T09:09:36.281Z,69.05
2023-03-20T09:23:49.779Z,66.74
2023-03-20T09:58:30.000Z,62.83
2023-03-20T10:13:37.473Z,61.67
2023-03-20T10:16:49.263Z,62.26
2023-03-20T10:19:34.714Z,61.55
2023-03-20T10:22:14.684Z,63.01
2023-03-20T10:25:07.931Z,63.05
2023-03-20T10:28:00.836Z,63.07
2023-03-20T10:30:46.690Z,63.24
2023-03-20T10:34:09.420Z,62.84
2023-03-20T10:37:09.323Z,62.10
2023-03-20T10:40:23.569Z,60.95
2023-03-20T10:43:36.040Z,61.43
2023-03-20T10:46:29.297Z,61.72
2023-03-20T10:49:51.678Z,61.46
2023-03-20T10:52:29.826Z,59.90
2023-03-20T10:55:13.573Z,59.63
2023-03-20T10:57:55.292Z,57.78
2023-03-20T11:00:28.718Z,58.41
2023-03-20T11:03:02.524Z,58.84
2023-03-20T11:05:58.624Z,56.05
2023-03-20T11:08:42.800Z,54.25
2023-03-20T11:11:28.308Z,53.91
2023-03-20T11:14:38.038Z,53.39
2023-03-20T11:17:13.808Z,53.75
2023-03-20T11:19:45.872Z,52.38
2023-03-20T11:22:26.696Z,48.78
2023-03-20T11:25:03.458Z,49.51
2023-03-20T11:30:30.022Z,51.72
2023-03-20T11:33:03.625Z,51.41
2023-03-20T11:35:36.302Z,52.16
2023-03-20T11:38:18.432Z,50.98
2023-03-20T11:40:54.975Z,50.87
2023-03-20T11:43:28.808Z,51.47
2023-03-20T11:46:04.510Z,51.31
2023-03-20T11:48:41.477Z,50.63
2023-03-20T11:51:22.925Z,50.43
2023-03-20T11:54:06.364Z,48.83
2023-03-20T11:56:38.969Z,48.78
2023-03-20T11:59:11.981Z,48.40
2023-03-20T12:01:51.564Z,48.16
2023-03-20T12:04:42.138Z,48.16
2023-03-20T12:07:42.927Z,46.69
2023-03-20T12:10:15.982Z,45.91
2023-03-20T12:12:55.031Z,45.08
2023-03-20T12:15:47.681Z,44.96
2023-03-20T12:18:39.203Z,45.39
2023-03-20T12:21:28.768Z,46.31
2023-03-20T12:24:25.695Z,47.29
2023-03-20T12:27:17.873Z,47.11
2023-03-20T12:30:12.852Z,47.83
2023-03-20T12:33:16.053Z,48.41
2023-03-20T12:35:52.368Z,47.93
2023-03-20T12:39:25.529Z,48.11
2023-03-20T12:42:07.426Z,49.31
2023-03-20T12:45:32.907Z,50.16
2023-03-20T12:48:53.867Z,50.51
2023-03-20T12:51:41.180Z,51.70
2023-03-20T12:54:20.316Z,52.35
2023-03-20T12:57:10.487Z,51.80
2023-03-20T12:59:57.603Z,50.78
2023-03-20T13:03:04.810Z,50.55
2023-03-20T13:06:36.820Z,50.82
2023-03-20T13:09:20.953Z,50.44
2023-03-20T13:12:01.893Z,51.05
2023-03-20T13:15:35.534Z,49.88
2023-03-20T13:19:02.171Z,50.92
2023-03-20T13:21:46.835Z,52.52
2023-03-20T13:24:30.853Z,52.52
2023-03-20T13:30:49.927Z,51.12
2023-03-20T13:33:43.620Z,52.52
2023-03-20T13:36:44.060Z,53.72
2023-03-20T13:39:37.941Z,53.73
2023-03-20T13:42:22.958Z,53.96
2023-03-20T13:46:21.392Z,53.92
2023-03-20T13:48:59.234Z,52.67
2023-03-20T13:51:40.224Z,53.23
2023-03-20T13:54:58.976Z,52.15
2023-03-20T13:58:26.176Z,51.74
2023-03-20T14:01:38.722Z,52.27
2023-03-20T14:04:19.283Z,52.67
2023-03-20T14:07:50.140Z,52.05
2023-03-20T14:11:25.034Z,52.82
2023-03-20T14:14:20.125Z,53.62
2023-03-20T14:17:26.651Z,53.90
2023-03-20T14:21:05.526Z,54.30
2023-03-20T14:23:44.905Z,54.54
2023-03-20T14:26:57.551Z,54.26
2023-03-20T14:29:29.647Z,54.43
2023-03-20T14:32:16.936Z,55.61
2023-03-20T14:35:26.982Z,56.06
2023-03-20T14:38:42.980Z,56.21
2023-03-20T14:42:07.850Z,56.08
2023-03-20T14:45:13.790Z,57.29
2023-03-20T14:48:17.195Z,57.78
2023-03-20T14:51:39.665Z,59.94
2023-03-20T14:54:41.754Z,59.88
2023-03-20T14:57:35.747Z,61.60
2023-03-20T15:00:24.004Z,62.62
2023-03-20T15:03:16.563Z,61.73
2023-03-20T15:05:58.626Z,62.37
2023-03-20T15:08:36.537Z,63.84
2023-03-20T15:11:12.617Z,64.62
2023-03-20T15:13:46.663Z,65.27
2023-03-20T15:16:31.275Z,65.48
2023-03-20T15:19:15.618Z,64.89
2023-03-20T15:21:48.813Z,65.65
2023-03-20T15:24:27.799Z,67.26
2023-03-20T15:27:03.132Z,69.27
2023-03-20T15:29:35.348Z,68.81
2023-03-20T15:32:14.820Z,68.19
2023-03-20T15:34:49.512Z,67.21
2023-03-20T15:37:25.116Z,67.37
2023-03-20T15:39:59.280Z,68.35
2023-03-20T15:42:32.886Z,67.97
2023-03-20T15:45:23.774Z,69.33
2023-03-20T15:48:17.786Z,69.49
2023-03-20T15:50:57.490Z,69.93
2023-03-20T15:53:40.538Z,69.72
2023-03-20T15:56:19.210Z,70.10
2023-03-20T15:58:52.682Z,69.42
2023-03-20T16:01:26.525Z,70.08
2023-03-20T16:04:00.111Z,70.38
2023-03-20T16:07:01.721Z,71.52
2023-03-20T16:09:44.331Z,72.42
2023-03-20T16:12:33.823Z,71.42
2023-03-20T16:15:06.860Z,71.58
2023-03-20T16:17:39.042Z,70.65
2023-03-20T16:20:16.951Z,72.00
2023-03-20T16:22:50.387Z,71.71
2023-03-20T16:25:22.532Z,70.23
2023-03-20T16:27:55.530Z,70.98
2023-03-20T16:30:33.325Z,71.08
2023-03-20T16:33:17.050Z,71.33
2023-03-20T16:35:50.950Z,72.05
2023-03-20T16:38:34.110Z,71.84
2023-03-20T16:41:28.179Z,72.22
2023-03-20T16:44:08.231Z,72.51
2023-03-20T16:47:24.514Z,72.33
2023-03-20T16:50:12.791Z,72.17
2023-03-20T16:52:57.921Z,71.85
2023-03-20T16:55:43.622Z,71.20
2023-03-20T16:58:21.108Z,72.38
2023-03-20T17:01:09.529Z,73.94
2023-03-20T17:03:52.694Z,74.71
2023-03-20T17:06:37.001Z,76.00
2023-03-20T17:09:33.511Z,75.89
2023-03-20T17:12:25.953Z,77.49
2023-03-20T17:14:58.060Z,77.81
2023-03-20T17:17:30.339Z,78.25
2023-03-20T17:20:02.582Z,79.58
2023-03-20T17:22:36.341Z,80.09
2023-03-20T17:25:09.288Z,80.15
2023-03-20T17:27:41.547Z,80.42
2023-03-20T17:30:24.055Z,80.44
2023-03-20T17:32:56.650Z,82.08
2023-03-20T17:35:28.846Z,84.36
2023-03-20T17:38:00.966Z,86.08
2023-03-20T17:40:32.945Z,87.31
2023-03-20T17:43:10.948Z,87.38
2023-03-20T17:45:44.440Z,87.95
2023-03-20T17:48:20.943Z,88.92
2023-03-20T17:50:53.051Z,89.89
2023-03-20T17:53:28.957Z,90.11
2023-03-20T17:56:01.684Z,89.94
2023-03-20T17:58:33.745Z,90.24
2023-03-20T18:01:07.218Z,90.60
2023-03-20T18:03:40.045Z,90.89
2023-03-20T18:06:38.737Z,90.81
2023-03-20T18:09:19.302Z,91.26
2023-03-20T18:11:51.332Z,90.85
2023-03-20T18:14:41.663Z,90.36
2023-03-20T18:17:15.154Z,89.82
2023-03-20T18:19:50.226Z,89.37
2023-03-20T18:22:22.374Z,89.27
2023-03-20T18:24:54.465Z,89.16
2023-03-20T18:27:26.709Z,89.96
2023-03-20T18:30:16.413Z,90.00
2023-03-20T18:32:49.205Z,90.34
2023-03-20T18:35:21.632Z,90.12
2023-03-20T18:37:53.650Z,90.46
2023-03-20T18:40:31.322Z,91.03
2023-03-20T18:43:03.752Z,90.92
2023-03-20T18:45:36.028Z,90.54
2023-03-20T18:48:12.551Z,91.29
2023-03-20T18:50:51.674Z,92.03
2023-03-20T18:53:23.763Z,91.35
2023-03-20T18:56:28.625Z,90.76
2023-03-20T18:59:08.920Z,90.78
2023-03-20T19:01:41.604Z,91.58
2023-03-20T19:04:16.557Z,92.17
2023-03-20T19:06:49.488Z,92.15
2023-03-20T19:09:26.823Z,92.78
2023-03-20T19:14:48.048Z,93.57
2023-03-20T19:17:28.992Z,94.12
2023-03-20T19:20:03.926Z,94.40
2023-03-20T19:22:44.678Z,95.27
2023-03-20T19:25:17.458Z,94.73
2023-03-20T19:27:49.838Z,95.01
2023-03-20T19:30:40.270Z,95.49
2023-03-20T19:33:14.923Z,95.86
2023-03-20T19:36:06.080Z,95.38
2023-03-20T19:38:43.459Z,95.80
2023-03-20T19:41:15.629Z,95.94
2023-03-20T19:43:53.645Z,96.02
2023-03-20T19:46:44.042Z,96.26
2023-03-20T19:49:30.072Z,96.23
2023-03-20T19:52:07.355Z,97.48
2023-03-20T19:54:50.067Z,99.33
2023-03-20T19:57:32.278Z,100.00
2023-03-20T20:01:11.149Z,100.00
2023-03-20T20:02:59.442Z,100.00
2023-03-20T20:05:37.375Z,100.00
2023-03-20T20:10:59.772Z,100.00
2023-03-20T20:13:43.834Z,100.00
2023-03-20T20:16:27.166Z,100.00
2023-03-20T20:25:18.999Z,100.00
2023-03-20T20:27:51.183Z,100.00
2023-03-20T20:30:23.570Z,100.00
2023-03-20T20:33:03.465Z,100.00
2023-03-20T20:36:57.535Z,100.00
2023-03-20T20:39:06.153Z,100.00
2023-03-20T20:41:45.164Z,100.00
2023-03-20T20:44:17.424Z,100.00
2023-03-20T20:47:05.903Z,100.00
2023-03-20T20:49:38.013Z,100.00
2023-03-20T20:52:26.068Z,100.00
2023-03-20T20:55:00.983Z,100.00
2023-03-20T20:57:42.557Z,100.00
2023-03-20T21:00:16.443Z,100.00
2023-03-20T21:02:52.163Z,100.00
2023-03-20T21:05:31.274Z,100.00
2023-03-20T21:08:03.762Z,100.00
2023-03-20T21:10:36.118Z,100.00
2023-03-20T21:16:06.201Z,100.00
2023-03-20T21:18:38.721Z,100.00
2023-03-20T21:21:13.795Z,100.00
2023-03-20T21:23:46.193Z,100.00
2023-03-20T21:26:18.729Z,100.00
2023-03-20T21:28:51.568Z,100.00
2023-03-20T21:31:30.427Z,100.00
2023-03-20T21:34:05.265Z,100.00
2023-03-20T21:36:37.500Z,100.00
2023-03-20T21:39:10.148Z,100.00
2023-03-20T21:41:42.221Z,100.00
2023-03-20T21:44:19.763Z,100.00
2023-03-20T21:50:42.142Z,100.00
2023-03-20T21:56:40.211Z,100.00
2023-03-20T21:59:12.811Z,100.00
2023-03-20T22:01:58.778Z,100.00
2023-03-20T22:05:16.308Z,100.00
2023-03-20T22:07:45.014Z,100.00
2023-03-20T22:10:54.681Z,100.00
2023-03-20T22:16:36.602Z,100.00
2023-03-20T22:27:56.509Z,100.00
2023-03-20T22:42:22.425Z,100.00
2023-03-20T22:47:24.111Z,100.00
2023-03-20T22:49:56.237Z,100.00
2023-03-20T22:52:41.704Z,100.00
2023-03-20T22:55:20.489Z,100.00
2023-03-20T22:58:06.473Z,100.00
2023-03-20T23:00:39.455Z,100.00
2023-03-20T23:03:22.388Z,100.00
2023-03-20T23:06:21.164Z,100.00
2023-03-20T23:09:03.137Z,100.00
2023-03-20T23:11:40.722Z,100.00
2023-03-20T23:14:20.746Z,100.00
2023-03-20T23:16:54.038Z,100.00
2023-03-20T23:19:26.623Z,100.00
2023-03-20T23:22:00.943Z,100.00
2023-03-20T23:24:32.955Z,100.00
2023-03-20T23:27:05.503Z,100.00
2023-03-20T23:29:37.459Z,100.00
2023-03-20T23:32:09.604Z,100.00
2023-03-20T23:34:41.653Z,100.00
2023-03-20T23:37:13.888Z,100.00
2023-03-20T23:39:45.982Z,100.00
2023-03-20T23:42:29.977Z,100.00
2023-03-20T23:45:17.145Z,100.00
2023-03-20T23:47:51.574Z,100.00
2023-03-20T23:50:31.937Z,100.00
2023-03-20T23:53:19.619Z,100.00
2023-03-20T23:55:56.333Z,100.00
2023-03-20T23:58:28.944Z,100.00
